Time;durP1;ratioP1;P1;durP2;ratioP2;P2;SDS_P1;SDS_P2;PMS_P1;PMS_P2;Temp;Humidity;BMP_temperature;BMP_pressure;BME280_temperature;BME280_humidity;BME280_pressure;Samples;Min_cycle;Max_cycle;Signal;HPM_P1;HPM_P2
2021/03/27 00:01:30;;;;;;;7.72;6.53;;;;;;;;;;4950619;28;20360;-65
2021/03/27 00:04:02;;;;;;;7.55;6.75;;;;;;;;;;4947502;29;20027;-65
2021/03/27 00:06:41;;;;;;;8.63;7.28;;;;;;;;;;4950028;28;20031;-64
2021/03/27 00:09:16;;;;;;;8.63;7.50;;;;;;;;;;4951877;28;20032;-64
2021/03/27 00:11:49;;;;;;;12.05;6.07;;;;;;;;;;4948113;29;21003;-64
2021/03/27 00:14:19;;;;;;;9.52;6.95;;;;;;;;;;4951082;28;20035;-65
2021/03/27 00:16:54;;;;;;;8.20;6.60;;;;;;;;;;4951495;28;20086;-65
2021/03/27 00:19:38;;;;;;;5.68;5.03;;;;;;;;;;4949658;28;20032;-64
2021/03/27 00:22:24;;;;;;;9.07;7.07;;;;;;;;;;4945687;29;20027;-65
2021/03/27 00:25:01;;;;;;;6.20;5.53;;;;;;;;;;4947773;29;20087;-65
2021/03/27 00:27:30;;;;;;;9.60;6.55;;;;;;;;;;4949860;28;20094;-65
2021/03/27 00:29:57;;;;;;;5.60;4.32;;;;;;;;;;4950450;29;20334;-65
2021/03/27 00:32:29;;;;;;;6.47;5.25;;;;;;;;;;4943885;28;20071;-65
2021/03/27 00:34:56;;;;;;;8.30;5.90;;;;;;;;;;4951739;28;20042;-65
2021/03/27 00:37:23;;;;;;;9.50;5.82;;;;;;;;;;4949656;28;20039;-65
2021/03/27 00:39:50;;;;;;;10.38;5.63;;;;;;;;;;4941659;29;20074;-64
2021/03/27 00:42:19;;;;;;;10.65;8.35;;;;;;;;;;4950167;28;20106;-66
2021/03/27 00:44:47;;;;;;;10.68;8.43;;;;;;;;;;4945283;29;20395;-65
2021/03/27 00:47:14;;;;;;;9.77;8.50;;;;;;;;;;4950717;28;20027;-65
2021/03/27 00:49:44;;;;;;;8.43;6.82;;;;;;;;;;4950404;29;20016;-65
2021/03/27 00:52:11;;;;;;;14.32;4.93;;;;;;;;;;4951182;28;20035;-65
2021/03/27 00:54:48;;;;;;;7.18;5.72;;;;;;;;;;4948568;29;20020;-65
2021/03/27 00:57:14;;;;;;;6.63;4.60;;;;;;;;;;4950436;28;20451;-65
2021/03/27 00:59:57;;;;;;;5.47;3.97;;;;;;;;;;4950351;29;20032;-64
2021/03/27 01:02:23;;;;;;;12.70;6.78;;;;;;;;;;4948961;29;20544;-64
2021/03/27 01:04:48;;;;;;;8.40;7.60;;;;;;;;;;4946129;28;20040;-64
2021/03/27 01:07:14;;;;;;;17.38;6.93;;;;;;;;;;4948683;28;20055;-65
2021/03/27 01:09:46;;;;;;;9.60;7.55;;;;;;;;;;4950249;29;20420;-65
2021/03/27 01:12:26;;;;;;;8.55;7.68;;;;;;;;;;4944553;28;20024;-65
2021/03/27 01:14:54;;;;;;;10.95;6.82;;;;;;;;;;4941088;29;20027;-66
2021/03/27 01:17:24;;;;;;;7.97;5.93;;;;;;;;;;4943150;28;20031;-65
2021/03/27 01:19:52;;;;;;;4.72;4.20;;;;;;;;;;4941281;29;20463;-65
2021/03/27 01:22:18;;;;;;;7.45;5.00;;;;;;;;;;4949672;28;20089;-65
2021/03/27 01:24:43;;;;;;;6.57;4.55;;;;;;;;;;4947687;29;20114;-65
2021/03/27 01:27:09;;;;;;;7.15;5.25;;;;;;;;;;4949392;28;20486;-65
2021/03/27 01:29:34;;;;;;;6.68;4.85;;;;;;;;;;4955711;28;20019;-65
2021/03/27 01:32:15;;;;;;;7.63;5.05;;;;;;;;;;4956986;28;20059;-65
2021/03/27 01:34:43;;;;;;;8.10;3.60;;;;;;;;;;4950639;29;20038;-65
2021/03/27 01:37:17;;;;;;;4.65;3.30;;;;;;;;;;4957007;28;20446;-64
2021/03/27 01:39:42;;;;;;;4.07;3.30;;;;;;;;;;4956165;29;20090;-64
2021/03/27 01:42:17;;;;;;;4.90;2.70;;;;;;;;;;4955459;28;20023;-64
2021/03/27 01:45:01;;;;;;;6.85;4.43;;;;;;;;;;4956006;29;20129;-64
2021/03/27 01:47:30;;;;;;;7.55;3.75;;;;;;;;;;4955106;28;20051;-65
2021/03/27 01:50:01;;;;;;;5.05;4.55;;;;;;;;;;4957531;28;20019;-65
2021/03/27 01:52:45;;;;;;;5.72;3.83;;;;;;;;;;4953342;28;20796;-65
2021/03/27 01:55:19;;;;;;;6.05;3.22;;;;;;;;;;4956620;28;20035;-65
2021/03/27 01:57:45;;;;;;;6.40;4.95;;;;;;;;;;4951292;29;20110;-64
2021/03/27 02:00:14;;;;;;;7.38;3.83;;;;;;;;;;4957103;28;20155;-64
2021/03/27 02:02:42;;;;;;;5.13;4.43;;;;;;;;;;4953033;29;20458;-64
2021/03/27 02:05:18;;;;;;;6.80;4.38;;;;;;;;;;4957313;28;20534;-64
2021/03/27 02:07:46;;;;;;;6.20;5.03;;;;;;;;;;4956040;29;20081;-64
2021/03/27 02:10:18;;;;;;;5.53;4.93;;;;;;;;;;4956875;28;20023;-64
2021/03/27 02:12:46;;;;;;;4.65;3.88;;;;;;;;;;4956437;28;20050;-64
2021/03/27 02:15:15;;;;;;;4.32;3.92;;;;;;;;;;4955276;28;20023;-65
2021/03/27 02:17:47;;;;;;;9.30;6.20;;;;;;;;;;4955712;29;20046;-64
2021/03/27 02:20:12;;;;;;;;;;;;;;;;;;4952900;28;20030;-64
2021/03/27 02:22:55;;;;;;;6.55;4.00;;;;;;;;;;4954466;28;19919;-64
2021/03/27 02:25:39;;;;;;;7.03;5.65;;;;;;;;;;4955621;28;20027;-64
2021/03/27 02:28:10;;;;;;;5.57;4.82;;;;;;;;;;4951199;29;20028;-64
2021/03/27 02:30:38;;;;;;;6.28;4.10;;;;;;;;;;4943422;28;20115;-64
2021/03/27 02:33:32;;;;;;;3.85;3.38;;;;;;;;;;4955589;28;20041;-66
2021/03/27 02:36:17;;;;;;;4.85;4.00;;;;;;;;;;4956781;28;20063;-64
2021/03/27 02:39:01;;;;;;;8.00;6.10;;;;;;;;;;4937651;29;20119;-65
2021/03/27 02:41:36;;;;;;;9.15;7.35;;;;;;;;;;4951638;29;20071;-64
2021/03/27 02:44:13;;;;;;;13.30;6.85;;;;;;;;;;4952635;28;20074;-66
2021/03/27 02:46:42;;;;;;;10.48;8.77;;;;;;;;;;4949604;29;20024;-66
2021/03/27 02:49:22;;;;;;;13.52;7.13;;;;;;;;;;4952956;28;20031;-66
2021/03/27 02:51:53;;;;;;;6.50;5.75;;;;;;;;;;4952681;28;20031;-66
2021/03/27 02:54:21;;;;;;;7.30;5.53;;;;;;;;;;4951607;28;20027;-66
2021/03/27 02:56:56;;;;;;;10.02;3.78;;;;;;;;;;4950663;29;20035;-66
2021/03/27 02:59:27;;;;;;;6.95;5.43;;;;;;;;;;4951127;28;20027;-66
2021/03/27 03:01:53;;;;;;;5.57;3.90;;;;;;;;;;4947870;28;20086;-66
2021/03/27 03:04:41;;;;;;;5.43;3.90;;;;;;;;;;4950310;29;20027;-66
2021/03/27 03:07:15;;;;;;;5.93;4.72;;;;;;;;;;4946125;29;20098;-66
2021/03/27 03:09:59;;;;;;;11.45;4.22;;;;;;;;;;4949496;29;20031;-66
2021/03/27 03:12:29;;;;;;;8.68;5.25;;;;;;;;;;4944838;28;20051;-66
2021/03/27 03:15:00;;;;;;;8.05;5.10;;;;;;;;;;4948768;28;20031;-66
2021/03/27 03:17:25;;;;;;;;;;;;;;;;;;4949649;29;20024;-66
2021/03/27 03:19:54;;;;;;;4.45;4.05;;;;;;;;;;4952575;28;19932;-66
2021/03/27 03:22:37;;;;;;;6.10;3.40;;;;;;;;;;4945515;28;20035;-66
2021/03/27 03:25:08;;;;;;;5.50;3.55;;;;;;;;;;4946654;29;20143;-66
2021/03/27 03:27:45;;;;;;;6.72;4.00;;;;;;;;;;4950457;28;20031;-66
2021/03/27 03:30:19;;;;;;;4.70;3.15;;;;;;;;;;4951985;28;20443;-66
2021/03/27 03:32:47;;;;;;;9.02;4.05;;;;;;;;;;4951054;29;20050;-66
2021/03/27 03:35:13;;;;;;;9.60;3.63;;;;;;;;;;4951933;28;20031;-66
2021/03/27 03:37:51;;;;;;;9.48;3.45;;;;;;;;;;4945230;29;20046;-66
2021/03/27 03:40:22;;;;;;;4.80;3.17;;;;;;;;;;4950613;28;20066;-66
2021/03/27 03:42:47;;;;;;;;;;;;;;;;;;4944326;29;20427;-66
2021/03/27 03:45:15;;;;;;;3.63;3.28;;;;;;;;;;4948321;28;19920;-66
2021/03/27 03:47:54;;;;;;;4.18;3.22;;;;;;;;;;4950020;29;20051;-66
2021/03/27 03:50:38;;;;;;;4.80;3.55;;;;;;;;;;4941723;28;20062;-66
2021/03/27 03:53:18;;;;;;;4.50;2.70;;;;;;;;;;4941210;29;20378;-66
2021/03/27 03:56:05;;;;;;;4.30;3.30;;;;;;;;;;4947301;29;20363;-66
2021/03/27 03:58:36;;;;;;;4.03;2.97;;;;;;;;;;4949891;28;20107;-66
2021/03/27 04:01:14;;;;;;;3.25;2.95;;;;;;;;;;4951322;28;20039;-66
2021/03/27 04:03:58;;;;;;;5.95;4.03;;;;;;;;;;4949669;29;20028;-66
2021/03/27 04:06:25;;;;;;;5.18;4.13;;;;;;;;;;4947254;28;20031;-66
2021/03/27 04:09:03;;;;;;;8.30;5.60;;;;;;;;;;4946215;28;20037;-66
2021/03/27 04:11:40;;;;;;;12.38;6.55;;;;;;;;;;4944160;28;20027;-66
2021/03/27 04:14:24;;;;;;;7.47;5.53;;;;;;;;;;4950593;28;20059;-66
2021/03/27 04:16:50;;;;;;;9.63;6.32;;;;;;;;;;4951342;28;20423;-66
2021/03/27 04:19:19;;;;;;;6.00;5.43;;;;;;;;;;4950249;28;20035;-66
2021/03/27 04:21:53;;;;;;;14.02;4.13;;;;;;;;;;4948176;29;20027;-66
2021/03/27 04:24:28;;;;;;;4.38;3.38;;;;;;;;;;4944857;28;20034;-66
2021/03/27 04:26:53;;;;;;;5.90;4.47;;;;;;;;;;4943269;29;20066;-66
2021/03/27 04:29:33;;;;;;;7.95;4.57;;;;;;;;;;4950048;28;20077;-66
2021/03/27 04:32:02;;;;;;;5.80;5.18;;;;;;;;;;4944366;29;20105;-66
2021/03/27 04:34:33;;;;;;;5.53;3.58;;;;;;;;;;4948521;28;20032;-66
2021/03/27 04:37:18;;;;;;;6.65;4.80;;;;;;;;;;4951032;28;20035;-66
2021/03/27 04:40:10;;;;;;;4.90;3.58;;;;;;;;;;4915390;29;20050;-66
2021/03/27 04:42:38;;;;;;;5.45;4.20;;;;;;;;;;4924484;29;20050;-66
2021/03/27 04:45:21;;;;;;;3.83;3.05;;;;;;;;;;4945565;28;20454;-66
2021/03/27 04:47:55;;;;;;;4.97;3.75;;;;;;;;;;4945840;29;20062;-66
2021/03/27 04:50:23;;;;;;;3.35;2.67;;;;;;;;;;4949499;28;20034;-66
2021/03/27 04:52:55;;;;;;;7.22;4.15;;;;;;;;;;4940329;29;20027;-66
2021/03/27 04:55:26;;;;;;;8.32;5.25;;;;;;;;;;4949527;28;20070;-66
2021/03/27 04:57:51;;;;;;;;;;;;;;;;;;4943801;29;20031;-66
2021/03/27 05:00:17;;;;;;;7.80;4.97;;;;;;;;;;4949987;28;19914;-66
2021/03/27 05:02:45;;;;;;;7.22;5.95;;;;;;;;;;4948652;29;20056;-66
2021/03/27 05:05:16;;;;;;;8.35;4.75;;;;;;;;;;4944987;28;20079;-66
2021/03/27 05:07:42;;;;;;;;;;;;;;;;;;4949766;29;20061;-66
2021/03/27 05:10:30;;;;;;;7.13;4.97;;;;;;;;;;4950729;28;19922;-66
2021/03/27 05:12:55;;;;;;;5.50;3.85;;;;;;;;;;4937288;29;20067;-66
2021/03/27 05:15:20;;;;;;;4.07;2.92;;;;;;;;;;4945809;28;20466;-66
2021/03/27 05:17:45;;;;;;;4.82;3.53;;;;;;;;;;4947083;29;20015;-66
2021/03/27 05:20:11;;;;;;;3.70;3.15;;;;;;;;;;4945418;28;20079;-66
2021/03/27 05:22:47;;;;;;;5.65;3.60;;;;;;;;;;4948602;29;20099;-65
2021/03/27 05:25:31;;;;;;;6.22;4.72;;;;;;;;;;4950003;28;20174;-66
2021/03/27 05:27:56;;;;;;;8.55;4.55;;;;;;;;;;4938329;29;20028;-66
2021/03/27 05:30:34;;;;;;;6.35;3.33;;;;;;;;;;4942756;28;20034;-66
2021/03/27 05:33:17;;;;;;;4.50;3.22;;;;;;;;;;4949912;28;20133;-66
2021/03/27 05:35:48;;;;;;;3.45;3.15;;;;;;;;;;4947388;29;20036;-66
2021/03/27 05:38:16;;;;;;;6.83;3.20;;;;;;;;;;4949085;28;20070;-66
2021/03/27 05:40:56;;;;;;;6.13;4.05;;;;;;;;;;4943738;29;20032;-66
2021/03/27 05:43:40;;;;;;;7.80;4.20;;;;;;;;;;4944241;28;20062;-66
2021/03/27 05:46:11;;;;;;;6.82;5.45;;;;;;;;;;4949905;28;20019;-66
2021/03/27 05:49:00;;;;;;;5.82;5.25;;;;;;;;;;4944907;29;20020;-66
2021/03/27 05:51:44;;;;;;;4.95;4.30;;;;;;;;;;4940137;29;20035;-66
2021/03/27 05:54:13;;;;;;;9.18;4.63;;;;;;;;;;4950004;28;20035;-66
2021/03/27 05:56:41;;;;;;;5.38;4.32;;;;;;;;;;4947589;29;20032;-65
2021/03/27 05:59:25;;;;;;;7.65;4.68;;;;;;;;;;4949174;28;20106;-65
2021/03/27 06:02:00;;;;;;;6.43;5.18;;;;;;;;;;4943994;28;20372;-65
2021/03/27 06:04:44;;;;;;;5.47;4.10;;;;;;;;;;4947364;28;20031;-65
2021/03/27 06:07:18;;;;;;;3.78;3.38;;;;;;;;;;4949120;28;20069;-65
2021/03/27 06:09:49;;;;;;;5.75;4.97;;;;;;;;;;4949465;29;20498;-65
2021/03/27 06:12:19;;;;;;;4.85;4.35;;;;;;;;;;4949079;28;20059;-65
2021/03/27 06:15:03;;;;;;;3.78;3.25;;;;;;;;;;4946491;29;20035;-65
2021/03/27 06:17:40;;;;;;;6.00;3.50;;;;;;;;;;4946038;28;20538;-65
2021/03/27 06:20:22;;;;;;;4.75;3.17;;;;;;;;;;4952889;28;20391;-65
2021/03/27 06:22:47;;;;;;;4.50;3.35;;;;;;;;;;4953162;28;20027;-65
2021/03/27 06:25:41;;;;;;;4.50;3.50;;;;;;;;;;4953048;28;20102;-65
2021/03/27 06:28:16;;;;;;;4.07;3.67;;;;;;;;;;4928730;29;20042;-65
2021/03/27 06:30:48;;;;;;;27.08;4.28;;;;;;;;;;4946615;29;20016;-65
2021/03/27 06:33:23;;;;;;;6.00;3.20;;;;;;;;;;4952249;28;20391;-65
2021/03/27 06:35:56;;;;;;;9.98;3.40;;;;;;;;;;4942572;29;20031;-65
2021/03/27 06:38:40;;;;;;;7.00;3.78;;;;;;;;;;4950563;28;20475;-63
2021/03/27 06:41:35;;;;;;;6.18;4.22;;;;;;;;;;4947510;29;20459;-63
2021/03/27 06:44:03;;;;;;;8.48;6.13;;;;;;;;;;4951856;28;20027;-62
2021/03/27 06:46:38;;;;;;;5.38;4.20;;;;;;;;;;4950991;28;20482;-69
2021/03/27 06:49:12;;;;;;;4.55;4.13;;;;;;;;;;4952421;28;20144;-69
2021/03/27 06:51:48;;;;;;;4.90;3.95;;;;;;;;;;4940846;29;20051;-69
2021/03/27 06:54:13;;;;;;;6.55;4.13;;;;;;;;;;4947732;28;20478;-68
2021/03/27 06:56:42;;;;;;;4.78;3.45;;;;;;;;;;4943617;29;20024;-69
2021/03/27 06:59:16;;;;;;;8.48;5.55;;;;;;;;;;4952235;28;20027;-69
2021/03/27 07:01:59;;;;;;;4.10;3.55;;;;;;;;;;4947765;29;20231;-69
2021/03/27 07:04:27;;;;;;;12.98;9.50;;;;;;;;;;4948350;28;20503;-69
2021/03/27 07:06:53;;;;;;;12.60;10.52;;;;;;;;;;4951216;28;20094;-69
2021/03/27 07:09:37;;;;;;;9.50;8.60;;;;;;;;;;4943701;29;20631;-69
2021/03/27 07:12:20;;;;;;;7.25;6.10;;;;;;;;;;4946588;29;20031;-69
2021/03/27 07:15:04;;;;;;;25.52;6.85;;;;;;;;;;4951831;29;20529;-68
2021/03/27 07:17:29;;;;;;;6.93;4.88;;;;;;;;;;4950034;28;20038;-69
2021/03/27 07:20:13;;;;;;;12.70;4.25;;;;;;;;;;4952179;28;20348;-69
2021/03/27 07:22:40;;;;;;;9.43;5.20;;;;;;;;;;4946250;29;20103;-69
2021/03/27 07:25:08;;;;;;;6.65;4.18;;;;;;;;;;4945059;28;20366;-64
2021/03/27 07:27:48;;;;;;;7.03;4.93;;;;;;;;;;4948324;28;20535;-65
2021/03/27 07:30:31;;;;;;;9.10;4.78;;;;;;;;;;4943222;29;20019;-65
2021/03/27 07:32:56;;;;;;;6.50;4.35;;;;;;;;;;4936782;29;20031;-65
2021/03/27 07:35:56;;;;;;;4.93;4.13;;;;;;;;;;4950675;28;20427;-64
2021/03/27 07:38:21;;;;;;;6.30;3.85;;;;;;;;;;4946828;29;20033;-64
2021/03/27 07:40:58;;;;;;;10.30;3.97;;;;;;;;;;4951958;29;20118;-66
2021/03/27 07:43:34;;;;;;;5.18;2.55;;;;;;;;;;4945850;28;20027;-65
2021/03/27 07:46:14;;;;;;;7.80;4.25;;;;;;;;;;4950759;28;20451;-64
2021/03/27 07:48:49;;;;;;;6.82;4.78;;;;;;;;;;4949571;29;20032;-65
2021/03/27 07:51:14;;;;;;;7.22;6.13;;;;;;;;;;4950332;28;20422;-65
2021/03/27 07:53:58;;;;;;;6.43;5.78;;;;;;;;;;4950517;29;20048;-65
2021/03/27 07:56:42;;;;;;;11.48;6.03;;;;;;;;;;4949826;28;20059;-65
2021/03/27 07:59:22;;;;;;;6.15;5.55;;;;;;;;;;4950306;29;20023;-65
2021/03/27 08:01:54;;;;;;;9.35;6.53;;;;;;;;;;4950790;28;20802;-65
2021/03/27 08:04:45;;;;;;;13.30;9.73;;;;;;;;;;4939288;28;20027;-65
2021/03/27 08:07:14;;;;;;;11.43;10.05;;;;;;;;;;4925668;29;20138;-65
2021/03/27 08:09:57;;;;;;;15.57;11.95;;;;;;;;;;4950193;29;20049;-65
2021/03/27 08:12:41;;;;;;;18.15;16.00;;;;;;;;;;4944087;29;20027;-65
2021/03/27 08:15:21;;;;;;;17.02;15.07;;;;;;;;;;4951418;29;20059;-65
2021/03/27 08:17:55;;;;;;;27.25;21.88;;;;;;;;;;4950699;29;20062;-65
2021/03/27 08:20:26;;;;;;;31.00;27.70;;;;;;;;;;4948660;29;20150;-66
2021/03/27 08:22:55;;;;;;;35.17;30.17;;;;;;;;;;4934682;29;20031;-63
2021/03/27 08:25:30;;;;;;;33.63;24.05;;;;;;;;;;4930377;29;20032;-64
2021/03/27 08:28:14;;;;;;;20.63;18.42;;;;;;;;;;4941418;29;20027;-64
2021/03/27 08:30:58;;;;;;;19.40;14.15;;;;;;;;;;4940856;29;20076;-65
2021/03/27 08:33:52;;;;;;;22.75;16.60;;;;;;;;;;4941146;29;20576;-67
2021/03/27 08:36:26;;;;;;;17.17;12.30;;;;;;;;;;4875745;28;20045;-68
2021/03/27 08:39:10;;;;;;;20.17;13.25;;;;;;;;;;4940491;29;20031;-68
2021/03/27 08:41:47;;;;;;;15.18;13.18;;;;;;;;;;4947176;29;20035;-68
2021/03/27 08:44:15;;;;;;;10.60;8.77;;;;;;;;;;4950146;29;20166;-68
2021/03/27 08:46:50;;;;;;;9.45;8.32;;;;;;;;;;4949164;29;20054;-68
2021/03/27 08:49:24;;;;;;;10.00;8.02;;;;;;;;;;4948908;28;20034;-68
2021/03/27 08:51:58;;;;;;;10.27;9.10;;;;;;;;;;4940034;29;20106;-67
2021/03/27 08:54:41;;;;;;;10.07;6.68;;;;;;;;;;4947464;28;20035;-68
2021/03/27 08:57:15;;;;;;;14.32;9.38;;;;;;;;;;4943352;28;20027;-68
2021/03/27 08:59:47;;;;;;;14.20;9.38;;;;;;;;;;4933570;29;20432;-68
2021/03/27 09:02:21;;;;;;;21.65;10.18;;;;;;;;;;4948331;28;20047;-68
2021/03/27 09:04:48;;;;;;;20.65;10.82;;;;;;;;;;4941636;29;20486;-67
2021/03/27 09:07:16;;;;;;;12.60;8.07;;;;;;;;;;4948193;29;20031;-66
2021/03/27 09:09:51;;;;;;;11.88;8.48;;;;;;;;;;4946134;29;20257;-66
2021/03/27 09:12:22;;;;;;;10.13;7.57;;;;;;;;;;4943841;28;20047;-66
2021/03/27 09:14:51;;;;;;;8.63;7.20;;;;;;;;;;4943387;29;20087;-66
2021/03/27 09:17:34;;;;;;;10.52;6.95;;;;;;;;;;4938734;29;20023;-66
2021/03/27 09:20:18;;;;;;;11.48;8.02;;;;;;;;;;4938102;29;20027;-68
2021/03/27 09:22:46;;;;;;;11.20;8.05;;;;;;;;;;4949666;28;20150;-68
2021/03/27 09:25:18;;;;;;;13.35;8.57;;;;;;;;;;4950684;28;20729;-68
2021/03/27 09:28:01;;;;;;;19.35;7.90;;;;;;;;;;4941724;29;20028;-68
2021/03/27 09:30:35;;;;;;;7.80;6.60;;;;;;;;;;4948764;28;20023;-68
2021/03/27 09:33:01;;;;;;;7.65;6.55;;;;;;;;;;4942579;28;20447;-69
2021/03/27 09:35:43;;;;;;;7.22;5.65;;;;;;;;;;4941976;29;20027;-69
2021/03/27 09:38:30;;;;;;;10.30;6.00;;;;;;;;;;4940163;29;20415;-68
2021/03/27 09:41:11;;;;;;;6.47;5.25;;;;;;;;;;4944100;28;20031;-68
2021/03/27 09:43:51;;;;;;;6.87;4.30;;;;;;;;;;4945618;29;20390;-68
2021/03/27 09:46:35;;;;;;;8.57;7.23;;;;;;;;;;4941675;29;20027;-72
2021/03/27 09:49:12;;;;;;;15.10;6.93;;;;;;;;;;4942152;28;20509;-72
2021/03/27 09:51:37;;;;;;;5.13;4.63;;;;;;;;;;4948312;29;20020;-72
2021/03/27 09:54:19;;;;;;;23.85;10.45;;;;;;;;;;4950469;28;20038;-72
2021/03/27 09:57:13;;;;;;;14.55;5.95;;;;;;;;;;4954189;29;20043;-72
2021/03/27 09:59:50;;;;;;;6.47;4.75;;;;;;;;;;4946537;29;20015;-73
2021/03/27 10:02:25;;;;;;;10.13;7.97;;;;;;;;;;4942817;29;20504;-73
2021/03/27 10:05:03;;;;;;;11.23;5.53;;;;;;;;;;4940432;29;20034;-73
2021/03/27 10:07:31;;;;;;;11.93;6.00;;;;;;;;;;4942276;29;20020;-72
2021/03/27 10:10:35;;;;;;;11.35;6.40;;;;;;;;;;4946654;29;20042;-70
2021/03/27 10:13:08;;;;;;;7.95;5.80;;;;;;;;;;4892516;29;20342;-72
2021/03/27 10:15:47;;;;;;;18.27;15.77;;;;;;;;;;4890655;29;20063;-71
2021/03/27 10:18:18;;;;;;;21.35;19.13;;;;;;;;;;4920854;28;20035;-71
2021/03/27 10:20:43;;;;;;;;;;;;;;;;;;4939085;29;20059;-73
2021/03/27 10:23:32;;;;;;;10.77;8.73;;;;;;;;;;4937565;29;19954;-72
2021/03/27 10:26:15;;;;;;;7.65;5.80;;;;;;;;;;4927902;29;20305;-72
2021/03/27 10:28:48;;;;;;;9.45;7.13;;;;;;;;;;4938750;29;20098;-72
2021/03/27 10:31:17;;;;;;;13.35;5.72;;;;;;;;;;4939290;29;20024;-68
2021/03/27 10:33:54;;;;;;;11.85;6.78;;;;;;;;;;4937873;29;20036;-68
2021/03/27 10:36:38;;;;;;;8.18;4.78;;;;;;;;;;4938207;29;20669;-68
2021/03/27 10:39:13;;;;;;;19.95;6.25;;;;;;;;;;4938103;29;20071;-68
2021/03/27 10:41:38;;;;;;;9.88;5.50;;;;;;;;;;4938944;29;20055;-68
2021/03/27 10:44:12;;;;;;;10.70;4.78;;;;;;;;;;4940675;29;20055;-68
2021/03/27 10:46:44;;;;;;;5.55;4.72;;;;;;;;;;4944572;29;20475;-68
2021/03/27 10:49:09;;;;;;;7.15;4.07;;;;;;;;;;4939220;29;20157;-67
2021/03/27 10:51:53;;;;;;;6.40;4.57;;;;;;;;;;4940711;28;20016;-67
2021/03/27 10:54:39;;;;;;;6.57;3.88;;;;;;;;;;4939781;29;20071;-69
2021/03/27 10:57:23;;;;;;;6.43;3.83;;;;;;;;;;4924282;29;20031;-72
2021/03/27 10:59:54;;;;;;;7.03;4.53;;;;;;;;;;4945305;29;20981;-70
2021/03/27 11:02:19;;;;;;;;;;;;;;;;;;4944307;29;20047;-69
2021/03/27 11:05:03;;;;;;;6.03;3.17;;;;;;;;;;4939243;29;19910;-70
2021/03/27 11:07:38;;;;;;;8.02;4.60;;;;;;;;;;4939146;29;20032;-68
2021/03/27 11:10:22;;;;;;;6.70;3.83;;;;;;;;;;4939601;29;20152;-70
2021/03/27 11:13:06;;;;;;;6.18;4.03;;;;;;;;;;4939062;29;20024;-69
2021/03/27 11:15:34;;;;;;;7.97;3.90;;;;;;;;;;4941609;29;20043;-69
2021/03/27 11:18:11;;;;;;;6.75;4.00;;;;;;;;;;4939599;29;20030;-69
2021/03/27 11:20:36;;;;;;;5.32;3.40;;;;;;;;;;4938082;29;20027;-67
2021/03/27 11:23:17;;;;;;;3.95;3.00;;;;;;;;;;4937250;29;20427;-69
2021/03/27 11:25:42;;;;;;;4.88;3.55;;;;;;;;;;4939395;29;20115;-68
2021/03/27 11:28:13;;;;;;;8.48;4.00;;;;;;;;;;4941371;29;20106;-71
2021/03/27 11:31:00;;;;;;;3.83;3.13;;;;;;;;;;4934253;29;20479;-70
2021/03/27 11:33:25;;;;;;;14.48;3.75;;;;;;;;;;4931048;29;20032;-71
2021/03/27 11:35:54;;;;;;;6.90;3.28;;;;;;;;;;4942164;28;20079;-69
2021/03/27 11:38:32;;;;;;;5.22;3.22;;;;;;;;;;4938473;29;20139;-72
2021/03/27 11:41:03;;;;;;;4.97;3.30;;;;;;;;;;4944041;29;20529;-70
2021/03/27 11:43:29;;;;;;;6.95;3.33;;;;;;;;;;4941219;29;20082;-71
2021/03/27 11:46:02;;;;;;;7.13;4.35;;;;;;;;;;4937988;29;20023;-71
2021/03/27 11:48:50;;;;;;;10.73;3.85;;;;;;;;;;4937290;29;20024;-70
2021/03/27 11:51:28;;;;;;;11.35;4.03;;;;;;;;;;4931962;29;20035;-70
2021/03/27 11:54:06;;;;;;;6.63;3.90;;;;;;;;;;4938421;29;20524;-69
2021/03/27 11:56:37;;;;;;;7.90;4.32;;;;;;;;;;4939212;29;20549;-70
2021/03/27 12:02:24;;;;;;;6.90;2.90;;;;;;;;;;4937874;29;20079;-70
2021/03/27 12:04:54;;;;;;;8.70;2.22;;;;;;;;;;4939636;28;20466;-70
2021/03/27 12:07:23;;;;;;;2.65;2.20;;;;;;;;;;4937327;29;20008;-70
2021/03/27 12:10:01;;;;;;;7.05;2.60;;;;;;;;;;4939974;29;20026;-70
2021/03/27 12:12:33;;;;;;;13.43;4.55;;;;;;;;;;4936342;29;20090;-70
2021/03/27 12:15:14;;;;;;;10.02;4.95;;;;;;;;;;4936995;29;20055;-70
2021/03/27 12:18:05;;;;;;;4.13;3.10;;;;;;;;;;4937222;29;20079;-70
2021/03/27 12:20:30;;;;;;;;;;;;;;;;;;4924589;29;20111;-70
2021/03/27 12:23:17;;;;;;;12.13;4.63;;;;;;;;;;4939036;29;19914;-70
2021/03/27 12:25:52;;;;;;;6.57;4.40;;;;;;;;;;4938224;29;20019;-70
2021/03/27 12:28:26;;;;;;;9.90;5.15;;;;;;;;;;4937878;29;20016;-70
2021/03/27 12:30:56;;;;;;;8.52;2.55;;;;;;;;;;4937265;29;20020;-69
2021/03/27 12:33:40;;;;;;;3.47;3.10;;;;;;;;;;4939636;29;20019;-70
2021/03/27 12:36:29;;;;;;;9.30;4.22;;;;;;;;;;4937802;29;20035;-70
2021/03/27 12:39:21;;;;;;;8.38;5.28;;;;;;;;;;4939263;28;20362;-70
2021/03/27 12:42:21;;;;;;;5.95;3.90;;;;;;;;;;4937966;29;20039;-70
2021/03/27 12:44:50;;;;;;;5.15;2.90;;;;;;;;;;4880915;29;20017;-70
2021/03/27 12:47:36;;;;;;;11.15;5.72;;;;;;;;;;4927368;29;20090;-71
2021/03/27 12:50:16;;;;;;;5.90;3.80;;;;;;;;;;4937126;29;20475;-71
2021/03/27 12:56:03;;;;;;;5.72;3.30;;;;;;;;;;4936909;29;20100;-71
2021/03/27 12:58:41;;;;;;;9.98;4.47;;;;;;;;;;4941644;29;20371;-70
2021/03/27 13:01:09;;;;;;;3.88;2.17;;;;;;;;;;4938102;28;20027;-70
2021/03/27 13:04:00;;;;;;;7.30;3.92;;;;;;;;;;4940751;28;20345;-70
2021/03/27 13:06:44;;;;;;;6.30;2.47;;;;;;;;;;4940248;29;20068;-70
2021/03/27 13:09:09;;;;;;;11.93;4.28;;;;;;;;;;4933976;29;20052;-71
2021/03/27 13:11:44;;;;;;;5.30;2.90;;;;;;;;;;4941910;28;20470;-70
2021/03/27 13:14:28;;;;;;;7.50;4.50;;;;;;;;;;4939820;29;20031;-70
2021/03/27 13:16:58;;;;;;;5.57;3.67;;;;;;;;;;4941835;28;20024;-70
2021/03/27 13:19:26;;;;;;;4.65;3.13;;;;;;;;;;4940680;29;20910;-70
2021/03/27 13:22:01;;;;;;;1.67;1.17;;;;;;;;;;4940556;29;20024;-70
2021/03/27 13:24:32;;;;;;;3.85;2.17;;;;;;;;;;4940942;28;20042;-70
2021/03/27 13:27:03;;;;;;;6.65;1.63;;;;;;;;;;4941206;28;20023;-70
2021/03/27 13:29:37;;;;;;;;;;;;;;;;;;4942368;29;20034;-70
2021/03/27 13:32:28;;;;;;;15.82;3.17;;;;;;;;;;4940727;28;19985;-70
2021/03/27 13:35:14;;;;;;;2.42;1.35;;;;;;;;;;4937601;29;20118;-70
2021/03/27 13:37:42;;;;;;;1.85;0.95;;;;;;;;;;4941475;29;20464;-70
2021/03/27 13:40:10;;;;;;;3.95;2.00;;;;;;;;;;4940637;29;20035;-70
2021/03/27 13:42:42;;;;;;;4.22;2.50;;;;;;;;;;4938971;29;20035;-71
2021/03/27 13:45:08;;;;;;;4.57;2.72;;;;;;;;;;4937203;29;20467;-71
2021/03/27 13:47:39;;;;;;;3.50;2.08;;;;;;;;;;4941404;28;20054;-71
2021/03/27 13:50:19;;;;;;;4.90;2.13;;;;;;;;;;4935963;29;20107;-70
2021/03/27 13:53:13;;;;;;;3.60;2.17;;;;;;;;;;4938719;29;20038;-71
2021/03/27 13:55:42;;;;;;;9.43;3.88;;;;;;;;;;4925826;29;20040;-71
2021/03/27 13:58:10;;;;;;;6.35;2.58;;;;;;;;;;4943814;29;20047;-72
2021/03/27 14:00:40;;;;;;;5.13;2.50;;;;;;;;;;4936215;28;20047;-71
2021/03/27 14:03:19;;;;;;;3.75;2.20;;;;;;;;;;4949819;28;20056;-71
2021/03/27 14:05:53;;;;;;;6.05;2.13;;;;;;;;;;4938145;29;20031;-71
2021/03/27 14:08:34;;;;;;;8.32;2.80;;;;;;;;;;4939291;29;20026;-71
2021/03/27 14:11:02;;;;;;;2.15;1.40;;;;;;;;;;4937996;29;20108;-71
2021/03/27 14:13:28;;;;;;;4.13;2.05;;;;;;;;;;4935268;29;20027;-68
2021/03/27 14:16:19;;;;;;;5.70;2.50;;;;;;;;;;4939913;28;20383;-70
2021/03/27 14:19:10;;;;;;;7.63;2.75;;;;;;;;;;4923286;29;20043;-71
2021/03/27 14:21:36;;;;;;;8.05;1.63;;;;;;;;;;4914878;29;20349;-70
2021/03/27 14:24:07;;;;;;;4.05;2.20;;;;;;;;;;4938088;29;20020;-69
2021/03/27 14:26:32;;;;;;;4.47;1.95;;;;;;;;;;4936932;29;20479;-71
2021/03/27 14:29:13;;;;;;;8.68;3.45;;;;;;;;;;4936180;29;20023;-72
2021/03/27 14:31:38;;;;;;;9.93;3.20;;;;;;;;;;4939293;29;20030;-71
2021/03/27 14:34:12;;;;;;;3.13;1.50;;;;;;;;;;4941586;28;20027;-70
2021/03/27 14:36:57;;;;;;;4.38;1.38;;;;;;;;;;4940765;29;20047;-70
2021/03/27 14:39:50;;;;;;;12.65;5.13;;;;;;;;;;4944335;28;20031;-71
2021/03/27 14:42:33;;;;;;;3.83;1.23;;;;;;;;;;4942842;29;20036;-70
2021/03/27 14:45:06;;;;;;;6.78;2.90;;;;;;;;;;4942641;29;20012;-69
2021/03/27 14:47:46;;;;;;;9.48;2.83;;;;;;;;;;4941358;29;20043;-69
2021/03/27 14:50:35;;;;;;;2.40;0.90;;;;;;;;;;4947166;29;20526;-70
2021/03/27 14:53:09;;;;;;;11.27;3.78;;;;;;;;;;4939267;29;20044;-70
2021/03/27 14:55:46;;;;;;;18.52;2.55;;;;;;;;;;4940879;29;22125;-71
2021/03/27 14:58:18;;;;;;;7.07;2.25;;;;;;;;;;4941530;29;20387;-71
2021/03/27 15:00:52;;;;;;;2.17;1.55;;;;;;;;;;4943776;29;20038;-71
2021/03/27 15:03:34;;;;;;;8.07;3.30;;;;;;;;;;4943171;29;20432;-71
2021/03/27 15:06:14;;;;;;;10.90;3.00;;;;;;;;;;4939959;29;20488;-69
2021/03/27 15:08:41;;;;;;;7.75;2.58;;;;;;;;;;4941429;29;20019;-70
2021/03/27 15:11:23;;;;;;;1.77;1.38;;;;;;;;;;4943465;29;20032;-71
2021/03/27 15:14:06;;;;;;;4.93;2.58;;;;;;;;;;4940280;29;20114;-70
2021/03/27 15:16:43;;;;;;;11.43;3.95;;;;;;;;;;4943096;29;20023;-70
2021/03/27 15:19:19;;;;;;;8.80;3.60;;;;;;;;;;4946864;29;20024;-70
2021/03/27 15:28:06;;;;;;;6.63;3.58;;;;;;;;;;4943898;29;20035;-70
2021/03/27 15:30:37;;;;;;;7.10;2.58;;;;;;;;;;4943573;29;20027;-70
2021/03/27 15:33:15;;;;;;;12.50;3.92;;;;;;;;;;4942389;29;20035;-69
2021/03/27 15:35:53;;;;;;;6.68;2.75;;;;;;;;;;4940048;29;20026;-70
2021/03/27 15:38:24;;;;;;;4.50;3.13;;;;;;;;;;4938368;29;20098;-70
2021/03/27 15:41:13;;;;;;;11.38;3.40;;;;;;;;;;4941018;29;20031;-70